createdAt,value
2022-10-22T00:02:21.079Z,100706.81
2022-10-22T00:04:49.901Z,100696.75
2022-10-22T00:07:18.451Z,100713.72
2022-10-22T00:09:45.213Z,100705.19
2022-10-22T00:12:12.853Z,100704.53
2022-10-22T00:14:39.752Z,100706.38
2022-10-22T00:17:10.514Z,100700.41
2022-10-22T00:19:39.047Z,100700.22
2022-10-22T00:22:06.037Z,100669.44
2022-10-22T00:24:34.208Z,100694.69
2022-10-22T00:27:01.274Z,100685.13
2022-10-22T00:29:27.976Z,100669.94
2022-10-22T00:34:22.638Z,100684.78
2022-10-22T00:36:50.732Z,100684.41
2022-10-22T00:39:21.637Z,100719.44
2022-10-22T00:41:51.966Z,100724.00
2022-10-22T00:45:07.899Z,100722.75
2022-10-22T00:47:39.003Z,100721.06
2022-10-22T00:50:15.566Z,100723.28
2022-10-22T00:52:42.453Z,100725.13
2022-10-22T00:55:09.827Z,100752.25
2022-10-22T00:57:36.855Z,100762.97
2022-10-22T01:00:08.199Z,100751.88
2022-10-22T01:02:34.806Z,100742.38
2022-10-22T01:05:01.925Z,100729.69
2022-10-22T01:07:28.557Z,100723.41
2022-10-22T01:10:24.899Z,100716.00
2022-10-22T01:13:17.469Z,100694.38
2022-10-22T01:15:56.216Z,100706.28
2022-10-22T01:18:43.915Z,100702.63
2022-10-22T01:21:29.290Z,100708.34
2022-10-22T01:24:32.640Z,100706.97
2022-10-22T01:27:29.781Z,100702.63
2022-10-22T01:30:08.069Z,100695.41
2022-10-22T01:32:49.591Z,100696.97
2022-10-22T01:38:05.272Z,100710.72
2022-10-22T01:40:32.942Z,100704.84
2022-10-22T01:43:05.761Z,100702.75
2022-10-22T01:45:40.274Z,100710.22
2022-10-22T01:48:33.715Z,100711.28
2022-10-22T01:51:39.191Z,100717.41
2022-10-22T01:54:36.492Z,100725.38
2022-10-22T01:57:33.390Z,100731.97
2022-10-22T02:00:11.548Z,100720.72
2022-10-22T02:02:56.110Z,100726.25
2022-10-22T02:05:27.815Z,100720.09
2022-10-22T02:08:02.788Z,100716.13
2022-10-22T02:10:30.900Z,100718.72
2022-10-22T02:12:59.626Z,100713.03
2022-10-22T02:15:29.037Z,100717.41
2022-10-22T02:17:58.310Z,100702.16
2022-10-22T02:20:30.539Z,100703.00
2022-10-22T02:22:58.141Z,100710.22
2022-10-22T02:25:30.707Z,100702.38
2022-10-22T02:28:22.111Z,100703.66
2022-10-22T02:30:54.875Z,100710.22
2022-10-22T02:33:29.911Z,100711.28
2022-10-22T02:35:58.278Z,100720.00
2022-10-22T02:38:27.112Z,100714.22
2022-10-22T02:40:53.769Z,100724.47
2022-10-22T02:43:20.481Z,100714.00
2022-10-22T02:45:47.238Z,100697.41
2022-10-22T02:48:13.838Z,100705.88
2022-10-22T02:50:40.527Z,100689.53
2022-10-22T02:53:07.088Z,100706.50
2022-10-22T02:55:33.630Z,100696.06
2022-10-22T02:58:00.174Z,100703.97
2022-10-22T03:00:26.764Z,100666.91
2022-10-22T03:02:53.300Z,100699.47
2022-10-22T03:05:19.860Z,100692.16
2022-10-22T03:07:46.380Z,100690.03
2022-10-22T03:10:12.969Z,100710.47
2022-10-22T03:12:39.513Z,100704.00
2022-10-22T03:15:06.530Z,100704.91
2022-10-22T03:17:33.047Z,100707.56
2022-10-22T03:19:59.657Z,100713.69
2022-10-22T03:22:32.606Z,100709.31
2022-10-22T03:25:03.340Z,100707.41
2022-10-22T03:27:30.335Z,100706.78
2022-10-22T03:29:57.979Z,100722.28
2022-10-22T03:32:24.569Z,100723.03
2022-10-22T03:34:51.201Z,100725.41
2022-10-22T03:37:18.034Z,100725.72
2022-10-22T03:39:45.012Z,100711.72
2022-10-22T03:42:13.294Z,100728.94
2022-10-22T03:44:40.762Z,100736.56
2022-10-22T03:47:07.805Z,100734.72
2022-10-22T03:49:34.366Z,100738.25
2022-10-22T03:52:14.110Z,100744.41
2022-10-22T03:54:42.140Z,100748.44
2022-10-22T03:57:09.506Z,100710.09
2022-10-22T03:59:38.799Z,100765.50
2022-10-22T04:02:05.847Z,100764.63
2022-10-22T04:04:32.690Z,100766.50
2022-10-22T04:06:59.682Z,100758.03
2022-10-22T04:09:26.209Z,100764.91
2022-10-22T04:11:53.054Z,100761.75
2022-10-22T04:14:19.616Z,100754.47
2022-10-22T04:16:46.156Z,100751.66
2022-10-22T04:19:13.399Z,100747.66
2022-10-22T04:21:39.987Z,100752.41
2022-10-22T04:24:06.546Z,100753.47
2022-10-22T04:26:33.058Z,100748.09
2022-10-22T04:28:59.660Z,100752.19
2022-10-22T04:31:26.422Z,100746.75
2022-10-22T04:33:59.057Z,100752.19
2022-10-22T04:36:27.199Z,100745.97
2022-10-22T04:38:56.806Z,100748.88
2022-10-22T04:41:31.452Z,100737.97
2022-10-22T04:43:58.543Z,100749.00
2022-10-22T04:46:30.409Z,100752.88
2022-10-22T04:48:57.219Z,100748.88
2022-10-22T04:51:26.495Z,100744.84
2022-10-22T04:53:53.957Z,100752.72
2022-10-22T04:56:24.941Z,100754.00
2022-10-22T04:59:07.018Z,100757.69
2022-10-22T05:01:40.156Z,100759.09
2022-10-22T05:04:14.390Z,100769.00
2022-10-22T05:06:41.297Z,100750.19
2022-10-22T05:09:16.210Z,100772.84
2022-10-22T05:11:46.226Z,100766.50
2022-10-22T05:14:13.215Z,100769.09
2022-10-22T05:16:40.000Z,100775.25
2022-10-22T05:19:07.641Z,100759.50
2022-10-22T05:21:34.812Z,100762.75
2022-10-22T05:24:01.430Z,100765.19
2022-10-22T05:26:29.160Z,100768.88
2022-10-22T05:28:55.716Z,100755.88
2022-10-22T05:31:22.298Z,100757.78
2022-10-22T05:33:49.076Z,100768.00
2022-10-22T05:36:19.933Z,100770.41
2022-10-22T05:38:46.837Z,100767.78
2022-10-22T05:41:17.657Z,100780.50
2022-10-22T05:43:44.383Z,100769.88
2022-10-22T05:46:22.231Z,100788.84
2022-10-22T05:48:55.205Z,100773.16
2022-10-22T05:51:22.728Z,100782.50
2022-10-22T05:53:57.089Z,100780.56
2022-10-22T05:56:24.864Z,100778.13
2022-10-22T05:58:52.090Z,100778.28
2022-10-22T06:01:28.523Z,100774.69
2022-10-22T06:04:00.766Z,100780.47
2022-10-22T06:06:34.653Z,100784.63
2022-10-22T06:09:07.332Z,100791.94
2022-10-22T06:11:35.215Z,100790.66
2022-10-22T06:14:02.275Z,100805.22
2022-10-22T06:16:30.366Z,100813.34
2022-10-22T06:19:01.923Z,100807.97
2022-10-22T06:21:29.908Z,100815.03
2022-10-22T06:23:58.447Z,100812.34
2022-10-22T06:26:25.084Z,100818.53
2022-10-22T06:28:51.770Z,100814.63
2022-10-22T06:31:18.326Z,100811.88
2022-10-22T06:33:44.844Z,100816.06
2022-10-22T06:36:15.271Z,100815.94
2022-10-22T06:38:42.166Z,100809.28
2022-10-22T06:41:15.102Z,100818.38
2022-10-22T06:43:46.894Z,100822.63
2022-10-22T06:46:19.154Z,100827.19
2022-10-22T06:48:57.239Z,100812.88
2022-10-22T06:51:24.203Z,100824.66
2022-10-22T06:53:50.766Z,100824.44
2022-10-22T06:56:21.021Z,100818.72
2022-10-22T06:58:52.181Z,100843.22
2022-10-22T07:01:23.661Z,100831.50
2022-10-22T07:03:51.836Z,100836.16
2022-10-22T07:06:20.148Z,100838.69
2022-10-22T07:08:47.125Z,100843.44
2022-10-22T07:11:17.735Z,100852.53
2022-10-22T07:13:45.513Z,100847.19
2022-10-22T07:16:13.273Z,100861.94
2022-10-22T07:18:41.785Z,100872.09
2022-10-22T07:21:11.345Z,100867.59
2022-10-22T07:23:38.081Z,100858.47
2022-10-22T07:26:07.453Z,100856.19
2022-10-22T07:28:36.462Z,100872.84
2022-10-22T07:31:03.116Z,100876.44
2022-10-22T07:33:29.786Z,100867.78
2022-10-22T07:36:01.369Z,100875.78
2022-10-22T07:38:29.038Z,100882.41
2022-10-22T07:40:55.817Z,100888.50
2022-10-22T07:43:22.948Z,100882.53
2022-10-22T07:45:49.862Z,100889.50
2022-10-22T07:48:17.007Z,100899.13
2022-10-22T07:53:11.297Z,100897.38
2022-10-22T07:55:37.894Z,100903.16
2022-10-22T07:58:04.516Z,100904.06
2022-10-22T08:00:31.155Z,100895.56
2022-10-22T08:02:57.682Z,100904.94
2022-10-22T08:05:24.224Z,100909.69
2022-10-22T08:07:50.755Z,100906.72
2022-10-22T08:10:17.487Z,100902.53
2022-10-22T08:12:44.271Z,100900.00
2022-10-22T08:15:11.155Z,100902.53
2022-10-22T08:17:37.791Z,100914.72
2022-10-22T08:20:04.655Z,100935.06
2022-10-22T08:22:31.426Z,100925.63
2022-10-22T08:24:57.953Z,100929.78
2022-10-22T08:27:24.503Z,100924.72
2022-10-22T08:29:51.133Z,100930.97
2022-10-22T08:32:17.914Z,100937.19
2022-10-22T08:34:44.485Z,100935.94
2022-10-22T08:37:14.345Z,100942.13
2022-10-22T08:39:41.598Z,100943.75
2022-10-22T08:42:50.861Z,100947.28
2022-10-22T08:45:36.264Z,100963.16
2022-10-22T08:48:32.085Z,100954.34
2022-10-22T08:50:58.844Z,100967.34
2022-10-22T08:53:40.867Z,100965.53
2022-10-22T08:56:07.453Z,100973.88
2022-10-22T08:58:55.958Z,100967.63
2022-10-22T09:01:49.034Z,100967.81
2022-10-22T09:04:42.980Z,100975.09
2022-10-22T09:07:10.459Z,100964.19
2022-10-22T09:09:46.732Z,100963.25
2022-10-22T09:12:20.294Z,100955.56
2022-10-22T09:14:47.257Z,100966.13
2022-10-22T09:17:36.630Z,100971.66
2022-10-22T09:20:17.630Z,100964.66
2022-10-22T09:23:29.137Z,100974.69
2022-10-22T09:25:57.634Z,100976.28
2022-10-22T09:28:24.258Z,100974.19
2022-10-22T09:30:51.076Z,100979.84
2022-10-22T09:33:28.055Z,100974.34
2022-10-22T09:35:59.293Z,100944.84
2022-10-22T09:38:34.006Z,100992.19
2022-10-22T09:41:04.072Z,100977.91
2022-10-22T09:43:32.440Z,100979.28
2022-10-22T09:46:03.589Z,100990.69
2022-10-22T09:48:34.567Z,100996.75
2022-10-22T09:51:20.952Z,100995.38
2022-10-22T09:54:00.944Z,100986.25
2022-10-22T09:56:36.854Z,100996.38
2022-10-22T09:59:04.150Z,100990.56
2022-10-22T10:01:38.565Z,101005.53
2022-10-22T10:04:12.290Z,100990.81
2022-10-22T10:06:42.185Z,101005.56
2022-10-22T10:09:21.690Z,100980.47
2022-10-22T10:12:30.012Z,100997.41
2022-10-22T10:15:07.095Z,100985.69
2022-10-22T10:17:48.552Z,100998.09
2022-10-22T10:20:32.164Z,100992.84
2022-10-22T10:23:13.331Z,100987.91
2022-10-22T10:26:21.101Z,100999.47
2022-10-22T10:29:25.311Z,101001.38
2022-10-22T10:32:28.637Z,101003.22
2022-10-22T10:35:30.407Z,100995.81
2022-10-22T10:38:04.700Z,100996.56
2022-10-22T10:40:43.667Z,100990.34
2022-10-22T10:43:43.683Z,100985.94
2022-10-22T10:46:58.566Z,100989.19
2022-10-22T10:49:33.136Z,100995.50
2022-10-22T10:52:29.377Z,100997.84
2022-10-22T10:55:13.771Z,100983.97
2022-10-22T10:57:59.851Z,100979.31
2022-10-22T11:00:28.247Z,100999.34
2022-10-22T11:03:22.183Z,101011.19
2022-10-22T11:05:57.944Z,101001.03
2022-10-22T11:08:33.623Z,101003.69
2022-10-22T11:11:21.669Z,100996.81
2022-10-22T11:14:05.337Z,101002.09
2022-10-22T11:17:18.264Z,101004.09
2022-10-22T11:20:07.500Z,101003.97
2022-10-22T11:22:50.453Z,100989.19
2022-10-22T11:25:48.975Z,101006.88
2022-10-22T11:28:49.949Z,101008.59
2022-10-22T11:31:18.399Z,101010.81
2022-10-22T11:34:37.363Z,100999.84
2022-10-22T11:37:06.153Z,100999.69
2022-10-22T11:40:02.648Z,101000.63
2022-10-22T11:42:41.139Z,101000.16
2022-10-22T11:45:13.758Z,100994.13
2022-10-22T11:48:07.359Z,101000.06
2022-10-22T11:50:57.347Z,100990.94
2022-10-22T11:53:39.013Z,100991.16
2022-10-22T11:56:13.249Z,100993.75
2022-10-22T11:58:45.026Z,100989.06
2022-10-22T12:01:11.438Z,100985.13
2022-10-22T12:03:41.186Z,100990.47
2022-10-22T12:06:15.625Z,100987.44
2022-10-22T12:08:49.576Z,100983.88
2022-10-22T12:11:26.333Z,100975.19
2022-10-22T12:14:03.378Z,100976.13
2022-10-22T12:16:56.151Z,100986.91
2022-10-22T12:19:23.243Z,100984.91
2022-10-22T12:22:07.631Z,100994.66
2022-10-22T12:24:41.699Z,100983.50
2022-10-22T12:27:40.427Z,100983.94
2022-10-22T12:30:24.433Z,100980.91
2022-10-22T12:33:00.682Z,101004.88
2022-10-22T12:35:31.092Z,100991.16
2022-10-22T12:38:05.280Z,100995.31
2022-10-22T12:40:35.379Z,100990.72
2022-10-22T12:43:11.694Z,100995.81
2022-10-22T12:45:39.400Z,100996.94
2022-10-22T12:48:17.054Z,100989.06
2022-10-22T12:50:59.373Z,100984.91
2022-10-22T12:53:53.619Z,100984.44
2022-10-22T12:56:28.666Z,100976.19
2022-10-22T12:59:30.491Z,100989.66
2022-10-22T13:01:57.655Z,100986.66
2022-10-22T13:04:26.955Z,100994.53
2022-10-22T13:07:18.249Z,100984.59
2022-10-22T13:09:55.385Z,100994.88
2022-10-22T13:12:35.559Z,101004.13
2022-10-22T13:15:35.796Z,100989.00
2022-10-22T13:18:25.175Z,100991.63
2022-10-22T13:20:58.771Z,100994.66
2022-10-22T13:23:28.450Z,100998.06
2022-10-22T13:26:14.732Z,101000.75
2022-10-22T13:28:41.777Z,100996.84
2022-10-22T13:31:20.644Z,101012.19
2022-10-22T13:33:54.881Z,101002.97
2022-10-22T13:36:22.695Z,101002.78
2022-10-22T13:38:52.707Z,100997.75
2022-10-22T13:41:21.307Z,101006.88
2022-10-22T13:43:48.227Z,101005.31
2022-10-22T13:46:15.201Z,100999.97
2022-10-22T13:48:42.490Z,101004.69
2022-10-22T13:51:35.600Z,101008.63
2022-10-22T13:54:03.775Z,100994.38
2022-10-22T13:56:30.303Z,101006.16
2022-10-22T13:58:56.855Z,101015.28
2022-10-22T14:01:27.166Z,101009.16
2022-10-22T14:03:57.957Z,101008.72
2022-10-22T14:06:28.772Z,101012.66
2022-10-22T14:09:01.714Z,101010.81
2022-10-22T14:11:30.698Z,101006.91
2022-10-22T14:13:57.478Z,101018.94
2022-10-22T14:16:26.956Z,101017.06
2022-10-22T14:18:55.556Z,101023.81
2022-10-22T14:21:22.186Z,101011.34
2022-10-22T14:23:50.058Z,101019.84
2022-10-22T14:26:31.286Z,101017.09
2022-10-22T14:29:13.922Z,101016.41
2022-10-22T14:31:43.389Z,101007.44
2022-10-22T14:34:13.197Z,101014.81
2022-10-22T14:36:39.905Z,101015.88
2022-10-22T14:39:06.532Z,101001.13
2022-10-22T14:41:33.189Z,101004.84
2022-10-22T14:43:59.917Z,101012.38
2022-10-22T14:46:26.747Z,101018.63
2022-10-22T14:48:53.359Z,101018.63
2022-10-22T14:51:21.601Z,101026.38
2022-10-22T14:53:48.860Z,101022.94
2022-10-22T14:56:21.189Z,101011.13
2022-10-22T14:58:48.380Z,101021.06
2022-10-22T15:01:15.030Z,101024.63
2022-10-22T15:03:41.555Z,101030.25
2022-10-22T15:06:08.334Z,101024.00
2022-10-22T15:08:34.975Z,101029.00
2022-10-22T15:11:07.772Z,101023.38
2022-10-22T15:13:35.436Z,101032.31
2022-10-22T15:16:07.226Z,101023.63
2022-10-22T15:18:34.200Z,101031.78
2022-10-22T15:21:05.981Z,101024.13
2022-10-22T15:23:32.573Z,101034.50
2022-10-22T15:25:59.475Z,101034.72
2022-10-22T15:28:26.193Z,101040.25
2022-10-22T15:30:58.807Z,101033.16
2022-10-22T15:33:26.717Z,101049.06
2022-10-22T15:35:53.745Z,101042.28
2022-10-22T15:38:20.527Z,101031.28
2022-10-22T15:40:47.524Z,101047.75
2022-10-22T15:43:14.459Z,101046.78
2022-10-22T15:45:41.199Z,101047.22
2022-10-22T15:48:07.764Z,101055.94
2022-10-22T15:50:38.602Z,101049.56
2022-10-22T15:53:05.607Z,101045.50
2022-10-22T15:55:32.255Z,101052.97
2022-10-22T15:58:01.809Z,101056.06
2022-10-22T16:00:30.096Z,101060.97
2022-10-22T16:02:56.801Z,101061.63
2022-10-22T16:05:23.365Z,101053.50
2022-10-22T16:07:51.382Z,101036.72
2022-10-22T16:10:17.969Z,101065.28
2022-10-22T16:12:44.609Z,101074.03
2022-10-22T16:15:11.397Z,101068.13
2022-10-22T16:17:38.137Z,101077.41
2022-10-22T16:20:05.226Z,101078.97
2022-10-22T16:22:31.843Z,101074.63
2022-10-22T16:24:58.386Z,101066.31
2022-10-22T16:27:27.890Z,101083.88
2022-10-22T16:29:54.414Z,101090.59
2022-10-22T16:32:20.960Z,101088.78
2022-10-22T16:34:47.509Z,101091.97
2022-10-22T16:37:14.057Z,101099.06
2022-10-22T16:39:40.646Z,101102.09
2022-10-22T16:42:07.208Z,101101.78
2022-10-22T16:44:33.931Z,101108.16
2022-10-22T16:47:00.971Z,101099.38
2022-10-22T16:49:27.573Z,101109.63
2022-10-22T16:51:54.095Z,101123.28
2022-10-22T16:54:21.816Z,101123.25
2022-10-22T16:56:48.398Z,101125.38
2022-10-22T16:59:15.032Z,101130.31
2022-10-22T17:01:41.698Z,101136.84
2022-10-22T17:04:09.420Z,101126.22
2022-10-22T17:06:36.079Z,101142.41
2022-10-22T17:09:03.816Z,101133.81
2022-10-22T17:11:34.734Z,101142.13
2022-10-22T17:14:02.613Z,101149.31
2022-10-22T17:16:29.729Z,101154.91
2022-10-22T17:18:56.998Z,101155.19
2022-10-22T17:21:24.290Z,101131.75
2022-10-22T17:23:56.563Z,101171.63
2022-10-22T17:26:24.052Z,101166.06
2022-10-22T17:28:51.026Z,101179.72
2022-10-22T17:31:34.233Z,101189.25
2022-10-22T17:34:01.229Z,101184.84
2022-10-22T17:36:31.896Z,101184.88
2022-10-22T17:39:05.747Z,101183.03
2022-10-22T17:41:35.524Z,101187.69
2022-10-22T17:44:05.302Z,101188.13
2022-10-22T17:46:32.868Z,101193.44
2022-10-22T17:49:03.517Z,101168.41
2022-10-22T17:51:31.379Z,101199.38
2022-10-22T17:53:58.221Z,101162.03
2022-10-22T17:56:28.868Z,101196.72
2022-10-22T17:58:56.189Z,101201.94
2022-10-22T18:01:29.909Z,101204.28
2022-10-22T18:04:05.179Z,101208.34
2022-10-22T18:06:32.940Z,101203.44
2022-10-22T18:08:59.830Z,101198.56
2022-10-22T18:11:27.869Z,101186.97
2022-10-22T18:13:56.963Z,101202.50
2022-10-22T18:16:24.839Z,101198.19
2022-10-22T18:18:55.256Z,101202.94
2022-10-22T18:21:24.424Z,101180.69
2022-10-22T18:23:51.132Z,101192.16
2022-10-22T18:26:20.300Z,101208.56
2022-10-22T18:28:52.421Z,101210.75
2022-10-22T18:31:23.456Z,101236.81
2022-10-22T18:33:50.722Z,101232.94
2022-10-22T18:36:35.830Z,101233.06
2022-10-22T18:39:03.715Z,101232.53
2022-10-22T18:41:33.693Z,101225.63
2022-10-22T18:44:04.760Z,101238.97
2022-10-22T18:46:43.760Z,101231.47
2022-10-22T18:49:20.262Z,101241.28
2022-10-22T18:51:54.460Z,101241.13
2022-10-22T18:54:24.234Z,101223.94
2022-10-22T18:56:58.057Z,101236.88
2022-10-22T18:59:30.358Z,101233.69
2022-10-22T19:02:04.021Z,101233.09
2022-10-22T19:04:37.305Z,101231.91
2022-10-22T19:07:06.341Z,101236.25
2022-10-22T19:09:36.199Z,101229.09
2022-10-22T19:12:02.910Z,101240.72
2022-10-22T19:14:29.636Z,101235.06
2022-10-22T19:16:56.162Z,101248.56
2022-10-22T19:19:23.224Z,101243.31
2022-10-22T19:21:50.589Z,101241.66
2022-10-22T19:24:20.065Z,101248.97
2022-10-22T19:26:48.058Z,101242.59
2022-10-22T19:29:22.112Z,101256.03
2022-10-22T19:31:50.887Z,101247.19
2022-10-22T19:34:18.346Z,101248.69
2022-10-22T19:36:44.964Z,101260.66
2022-10-22T19:39:16.228Z,101266.22
2022-10-22T19:41:42.955Z,101255.72
2022-10-22T19:44:10.213Z,101258.63
2022-10-22T19:46:37.069Z,101275.19
2022-10-22T19:49:04.408Z,101247.47
2022-10-22T19:51:34.318Z,101275.69
2022-10-22T19:54:11.439Z,101269.47
2022-10-22T19:56:38.374Z,101278.72
2022-10-22T19:59:05.912Z,101272.25
2022-10-22T20:01:32.943Z,101285.94
2022-10-22T20:04:01.312Z,101282.16
2022-10-22T20:06:28.735Z,101286.78
2022-10-22T20:08:56.301Z,101288.00
2022-10-22T20:11:32.030Z,101287.16
2022-10-22T20:13:59.175Z,101304.53
2022-10-22T20:16:29.696Z,101307.00
2022-10-22T20:19:01.240Z,101305.97
2022-10-22T20:21:28.034Z,101304.38
2022-10-22T20:23:56.332Z,101316.50
2022-10-22T20:26:24.549Z,101312.25
2022-10-22T20:28:51.926Z,101325.69
2022-10-22T20:31:21.363Z,101314.31
2022-10-22T20:33:49.151Z,101315.53
2022-10-22T20:36:21.835Z,101320.41
2022-10-22T20:38:49.784Z,101325.25
2022-10-22T20:41:20.798Z,101309.47
2022-10-22T20:43:49.843Z,101328.53
2022-10-22T20:46:22.932Z,101312.59
2022-10-22T20:48:53.469Z,101316.63
2022-10-22T20:51:20.168Z,101333.25
2022-10-22T20:53:46.770Z,101324.38
2022-10-22T20:56:14.057Z,101319.84
2022-10-22T20:58:46.128Z,101326.66
2022-10-22T21:01:18.518Z,101321.91
2022-10-22T21:03:45.944Z,101335.78
2022-10-22T21:06:12.507Z,101341.47
2022-10-22T21:08:39.121Z,101338.75
2022-10-22T21:11:05.942Z,101348.00
2022-10-22T21:13:33.173Z,101348.50
2022-10-22T21:15:59.779Z,101351.56
2022-10-22T21:18:26.910Z,101352.91
2022-10-22T21:20:53.445Z,101343.25
2022-10-22T21:23:19.996Z,101353.38
2022-10-22T21:25:55.110Z,101346.94
2022-10-22T21:28:22.195Z,101355.44
2022-10-22T21:30:48.803Z,101362.34
2022-10-22T21:33:15.825Z,101356.19
2022-10-22T21:35:52.043Z,101350.16
2022-10-22T21:38:19.031Z,101334.16
2022-10-22T21:40:45.792Z,101328.78
2022-10-22T21:43:12.912Z,101331.66
2022-10-22T21:45:39.549Z,101334.75
2022-10-22T21:48:06.251Z,101338.63
2022-10-22T21:50:32.878Z,101344.34
2022-10-22T21:52:59.987Z,101342.09
2022-10-22T21:55:26.573Z,101357.34
2022-10-22T21:57:53.154Z,101344.41
2022-10-22T22:00:21.772Z,101350.22
2022-10-22T22:02:48.340Z,101345.28
2022-10-22T22:05:17.129Z,101343.38
2022-10-22T22:07:43.665Z,101348.09
2022-10-22T22:10:10.307Z,101341.44
2022-10-22T22:12:36.919Z,101336.09
2022-10-22T22:15:04.053Z,101325.25
2022-10-22T22:17:30.671Z,101318.88
2022-10-22T22:19:57.284Z,101322.47
2022-10-22T22:22:24.879Z,101313.91
2022-10-22T22:24:51.479Z,101322.31
2022-10-22T22:27:18.071Z,101321.94
2022-10-22T22:29:44.768Z,101320.81
2022-10-22T22:32:14.184Z,101328.97
2022-10-22T22:34:40.978Z,101337.69
2022-10-22T22:37:08.045Z,101341.84
2022-10-22T22:39:34.647Z,101336.94
2022-10-22T22:42:01.399Z,101340.75
2022-10-22T22:44:27.973Z,101338.53
2022-10-22T22:46:54.493Z,101347.69
2022-10-22T22:49:21.063Z,101346.56
2022-10-22T22:51:49.651Z,101351.06
2022-10-22T22:54:16.220Z,101359.81
2022-10-22T22:56:42.758Z,101352.91
2022-10-22T22:59:10.747Z,101349.53
2022-10-22T23:01:39.694Z,101357.00
2022-10-22T23:04:11.729Z,101345.16
2022-10-22T23:06:38.387Z,101349.94
2022-10-22T23:09:07.654Z,101343.47
2022-10-22T23:11:34.868Z,101346.13
2022-10-22T23:14:04.496Z,101357.69
2022-10-22T23:16:35.113Z,101360.41
2022-10-22T23:19:01.859Z,101349.19
2022-10-22T23:21:38.148Z,101356.28
2022-10-22T23:24:14.683Z,101354.28
2022-10-22T23:26:47.418Z,101354.59
2022-10-22T23:29:19.786Z,101358.28
2022-10-22T23:31:47.860Z,101356.59
2022-10-22T23:36:52.425Z,101348.84
2022-10-22T23:39:24.559Z,101353.34
2022-10-22T23:41:53.062Z,101362.41
2022-10-22T23:44:21.183Z,101363.13
2022-10-22T23:46:47.986Z,101361.41
2022-10-22T23:49:15.016Z,101353.78
2022-10-22T23:51:41.822Z,101360.03
2022-10-22T23:54:14.379Z,101362.69
2022-10-22T23:56:41.452Z,101359.59
2022-10-22T23:59:08.981Z,101353.16
